sensor_id;sensor_type;location;lat;lon;timestamp;pressure;altitude;pressure_sealevel;temperature;humidity
75513;BME280;64090;49.770;18.760;2024-03-02T00:01:29;96971.35;;;6.65;99.34
75513;BME280;64090;49.770;18.760;2024-03-02T00:04:32;96978.79;;;6.66;99.31
75513;BME280;64090;49.770;18.760;2024-03-02T00:07:35;96983.74;;;6.65;99.59
75513;BME280;64090;49.770;18.760;2024-03-02T00:10:38;96985.13;;;6.64;99.48
75513;BME280;64090;49.770;18.760;2024-03-02T00:13:45;96983.61;;;6.63;99.43
75513;BME280;64090;49.770;18.760;2024-03-02T00:16:48;96993.00;;;6.63;99.44
75513;BME280;64090;49.770;18.760;2024-03-02T00:19:51;96991.25;;;6.63;99.73
75513;BME280;64090;49.770;18.760;2024-03-02T00:23:15;96991.09;;;6.64;99.55
75513;BME280;64090;49.770;18.760;2024-03-02T00:26:18;96980.58;;;6.64;99.93
75513;BME280;64090;49.770;18.760;2024-03-02T00:29:21;96980.52;;;6.63;99.84
75513;BME280;64090;49.770;18.760;2024-03-02T00:32:24;96971.71;;;6.60;99.88
75513;BME280;64090;49.770;18.760;2024-03-02T00:35:28;96975.19;;;6.58;99.74
75513;BME280;64090;49.770;18.760;2024-03-02T00:38:31;96983.46;;;6.56;99.74
75513;BME280;64090;49.770;18.760;2024-03-02T00:41:34;96984.04;;;6.56;99.58
75513;BME280;64090;49.770;18.760;2024-03-02T00:44:38;96984.98;;;6.57;99.42
75513;BME280;64090;49.770;18.760;2024-03-02T00:47:41;96980.34;;;6.56;99.56
75513;BME280;64090;49.770;18.760;2024-03-02T00:50:44;96984.56;;;6.55;99.64
75513;BME280;64090;49.770;18.760;2024-03-02T00:53:47;96978.38;;;6.52;99.84
75513;BME280;64090;49.770;18.760;2024-03-02T00:56:51;96979.48;;;6.50;99.81
75513;BME280;64090;49.770;18.760;2024-03-02T00:59:54;96978.86;;;6.48;100.00
75513;BME280;64090;49.770;18.760;2024-03-02T01:02:58;96979.05;;;6.45;100.00
75513;BME280;64090;49.770;18.760;2024-03-02T01:06:01;96977.49;;;6.42;100.00
75513;BME280;64090;49.770;18.760;2024-03-02T01:09:04;96972.86;;;6.40;100.00
75513;BME280;64090;49.770;18.760;2024-03-02T01:12:07;96969.98;;;6.36;100.00
75513;BME280;64090;49.770;18.760;2024-03-02T01:15:10;96961.86;;;6.32;99.97
75513;BME280;64090;49.770;18.760;2024-03-02T01:18:14;96959.13;;;6.28;99.99
75513;BME280;64090;49.770;18.760;2024-03-02T01:21:16;96959.96;;;6.23;100.00
75513;BME280;64090;49.770;18.760;2024-03-02T01:24:19;96960.23;;;6.19;99.90
75513;BME280;64090;49.770;18.760;2024-03-02T01:27:22;96957.89;;;6.16;99.78
75513;BME280;64090;49.770;18.760;2024-03-02T01:30:25;96959.76;;;6.12;99.90
75513;BME280;64090;49.770;18.760;2024-03-02T01:33:28;96954.84;;;6.11;99.99
75513;BME280;64090;49.770;18.760;2024-03-02T01:36:31;96955.36;;;6.12;99.72
75513;BME280;64090;49.770;18.760;2024-03-02T01:39:34;96955.77;;;6.12;99.87
75513;BME280;64090;49.770;18.760;2024-03-02T01:42:39;96947.48;;;6.12;99.45
75513;BME280;64090;49.770;18.760;2024-03-02T01:45:42;96944.92;;;6.12;99.44
75513;BME280;64090;49.770;18.760;2024-03-02T01:48:48;96943.03;;;6.14;99.22
75513;BME280;64090;49.770;18.760;2024-03-02T01:51:58;96939.00;;;6.15;99.31
75513;BME280;64090;49.770;18.760;2024-03-02T01:55:05;96942.13;;;6.15;99.08
75513;BME280;64090;49.770;18.760;2024-03-02T02:01:26;96939.88;;;6.17;99.13
75513;BME280;64090;49.770;18.760;2024-03-02T02:04:29;96938.98;;;6.19;99.19
75513;BME280;64090;49.770;18.760;2024-03-02T02:07:33;96938.56;;;6.21;99.34
75513;BME280;64090;49.770;18.760;2024-03-02T02:10:37;96937.06;;;6.23;99.16
75513;BME280;64090;49.770;18.760;2024-03-02T02:13:40;96938.01;;;6.25;98.93
75513;BME280;64090;49.770;18.760;2024-03-02T02:16:42;96932.16;;;6.27;99.10
75513;BME280;64090;49.770;18.760;2024-03-02T02:19:45;96934.73;;;6.29;98.86
75513;BME280;64090;49.770;18.760;2024-03-02T02:23:01;96935.45;;;6.30;98.85
75513;BME280;64090;49.770;18.760;2024-03-02T02:26:04;96929.55;;;6.31;98.74
75513;BME280;64090;49.770;18.760;2024-03-02T02:29:07;96927.74;;;6.31;98.86
75513;BME280;64090;49.770;18.760;2024-03-02T02:32:10;96931.11;;;6.31;98.71
75513;BME280;64090;49.770;18.760;2024-03-02T02:35:13;96929.94;;;6.29;98.77
75513;BME280;64090;49.770;18.760;2024-03-02T02:38:16;96930.22;;;6.27;98.64
75513;BME280;64090;49.770;18.760;2024-03-02T02:41:19;96926.02;;;6.21;98.50
75513;BME280;64090;49.770;18.760;2024-03-02T02:44:21;96922.93;;;6.15;98.59
75513;BME280;64090;49.770;18.760;2024-03-02T02:47:25;96926.13;;;6.11;98.45
75513;BME280;64090;49.770;18.760;2024-03-02T02:50:28;96928.55;;;6.04;98.35
75513;BME280;64090;49.770;18.760;2024-03-02T02:53:31;96933.02;;;6.00;98.37
75513;BME280;64090;49.770;18.760;2024-03-02T02:56:34;96934.80;;;5.94;98.25
75513;BME280;64090;49.770;18.760;2024-03-02T02:59:36;96937.58;;;5.90;98.51
75513;BME280;64090;49.770;18.760;2024-03-02T03:02:43;96940.05;;;5.89;98.92
75513;BME280;64090;49.770;18.760;2024-03-02T03:05:46;96940.77;;;5.87;98.70
75513;BME280;64090;49.770;18.760;2024-03-02T03:08:49;96949.59;;;5.82;98.83
75513;BME280;64090;49.770;18.760;2024-03-02T03:11:52;96944.63;;;5.78;98.97
75513;BME280;64090;49.770;18.760;2024-03-02T03:14:55;96947.52;;;5.75;99.23
75513;BME280;64090;49.770;18.760;2024-03-02T03:17:58;96947.71;;;5.72;99.42
75513;BME280;64090;49.770;18.760;2024-03-02T03:21:01;96950.41;;;5.70;99.29
75513;BME280;64090;49.770;18.760;2024-03-02T03:24:05;96951.63;;;5.71;99.35
75513;BME280;64090;49.770;18.760;2024-03-02T03:27:08;96948.05;;;5.71;99.63
75513;BME280;64090;49.770;18.760;2024-03-02T03:30:11;96948.09;;;5.72;99.50
75513;BME280;64090;49.770;18.760;2024-03-02T03:33:14;96947.02;;;5.74;99.74
75513;BME280;64090;49.770;18.760;2024-03-02T03:36:17;96946.77;;;5.76;99.83
75513;BME280;64090;49.770;18.760;2024-03-02T03:39:20;96947.51;;;5.79;99.69
75513;BME280;64090;49.770;18.760;2024-03-02T03:42:22;96947.13;;;5.85;99.57
75513;BME280;64090;49.770;18.760;2024-03-02T03:45:25;96944.28;;;5.91;99.62
75513;BME280;64090;49.770;18.760;2024-03-02T03:48:29;96941.91;;;6.00;99.46
75513;BME280;64090;49.770;18.760;2024-03-02T03:51:33;96944.10;;;6.08;99.30
75513;BME280;64090;49.770;18.760;2024-03-02T03:54:36;96942.30;;;6.14;99.21
75513;BME280;64090;49.770;18.760;2024-03-02T03:57:41;96933.77;;;6.17;99.07
75513;BME280;64090;49.770;18.760;2024-03-02T04:00:44;96931.12;;;6.20;98.98
75513;BME280;64090;49.770;18.760;2024-03-02T04:03:47;96926.90;;;6.21;98.96
75513;BME280;64090;49.770;18.760;2024-03-02T04:06:50;96923.93;;;6.20;98.60
75513;BME280;64090;49.770;18.760;2024-03-02T04:09:53;96921.33;;;6.18;98.57
75513;BME280;64090;49.770;18.760;2024-03-02T04:12:56;96926.92;;;6.17;98.65
75513;BME280;64090;49.770;18.760;2024-03-02T04:15:59;96931.31;;;6.16;98.61
75513;BME280;64090;49.770;18.760;2024-03-02T04:19:02;96934.30;;;6.16;98.69
75513;BME280;64090;49.770;18.760;2024-03-02T04:22:06;96935.73;;;6.15;98.62
75513;BME280;64090;49.770;18.760;2024-03-02T04:25:22;96932.86;;;6.16;98.57
75513;BME280;64090;49.770;18.760;2024-03-02T04:28:25;96930.61;;;6.17;98.61
75513;BME280;64090;49.770;18.760;2024-03-02T04:31:28;96928.11;;;6.19;98.44
75513;BME280;64090;49.770;18.760;2024-03-02T04:34:31;96927.48;;;6.21;98.47
75513;BME280;64090;49.770;18.760;2024-03-02T04:37:34;96935.23;;;6.23;98.45
75513;BME280;64090;49.770;18.760;2024-03-02T04:40:37;96940.00;;;6.26;98.55
75513;BME280;64090;49.770;18.760;2024-03-02T04:43:40;96937.41;;;6.28;98.23
75513;BME280;64090;49.770;18.760;2024-03-02T04:46:43;96936.96;;;6.31;98.18
75513;BME280;64090;49.770;18.760;2024-03-02T04:49:46;96934.05;;;6.33;98.18
75513;BME280;64090;49.770;18.760;2024-03-02T04:52:49;96928.90;;;6.35;98.30
75513;BME280;64090;49.770;18.760;2024-03-02T04:55:52;96933.61;;;6.37;98.17
75513;BME280;64090;49.770;18.760;2024-03-02T04:59:12;96932.32;;;6.39;98.22
75513;BME280;64090;49.770;18.760;2024-03-02T05:02:15;96932.98;;;6.41;98.02
75513;BME280;64090;49.770;18.760;2024-03-02T05:05:18;96939.84;;;6.42;97.99
75513;BME280;64090;49.770;18.760;2024-03-02T05:08:21;96939.64;;;6.43;98.00
75513;BME280;64090;49.770;18.760;2024-03-02T05:11:24;96941.23;;;6.42;98.03
75513;BME280;64090;49.770;18.760;2024-03-02T05:14:42;96945.45;;;6.41;97.85
75513;BME280;64090;49.770;18.760;2024-03-02T05:17:45;96949.30;;;6.41;97.83
75513;BME280;64090;49.770;18.760;2024-03-02T05:20:48;96946.59;;;6.41;97.95
75513;BME280;64090;49.770;18.760;2024-03-02T05:23:51;96943.41;;;6.40;98.00
75513;BME280;64090;49.770;18.760;2024-03-02T05:26:54;96946.38;;;6.41;98.01
75513;BME280;64090;49.770;18.760;2024-03-02T05:29:58;96954.67;;;6.43;98.05
75513;BME280;64090;49.770;18.760;2024-03-02T05:33:01;96958.26;;;6.47;97.95
75513;BME280;64090;49.770;18.760;2024-03-02T05:36:04;96956.10;;;6.50;98.01
75513;BME280;64090;49.770;18.760;2024-03-02T05:39:08;96954.42;;;6.54;97.64
75513;BME280;64090;49.770;18.760;2024-03-02T05:42:13;96951.22;;;6.56;97.72
75513;BME280;64090;49.770;18.760;2024-03-02T05:45:17;96956.46;;;6.61;97.77
75513;BME280;64090;49.770;18.760;2024-03-02T05:48:20;96954.29;;;6.64;97.66
75513;BME280;64090;49.770;18.760;2024-03-02T05:51:23;96955.48;;;6.68;97.58
75513;BME280;64090;49.770;18.760;2024-03-02T05:54:25;96955.64;;;6.74;97.72
75513;BME280;64090;49.770;18.760;2024-03-02T05:57:28;96955.43;;;6.80;97.43
75513;BME280;64090;49.770;18.760;2024-03-02T06:00:43;96964.77;;;6.86;97.42
75513;BME280;64090;49.770;18.760;2024-03-02T06:03:46;96966.90;;;6.91;97.36
75513;BME280;64090;49.770;18.760;2024-03-02T06:06:49;96972.27;;;6.96;97.22
75513;BME280;64090;49.770;18.760;2024-03-02T06:09:52;96975.98;;;7.02;97.25
75513;BME280;64090;49.770;18.760;2024-03-02T06:12:55;96981.54;;;7.06;96.90
75513;BME280;64090;49.770;18.760;2024-03-02T06:15:58;96977.49;;;7.10;96.86
75513;BME280;64090;49.770;18.760;2024-03-02T06:19:01;96981.52;;;7.15;96.77
75513;BME280;64090;49.770;18.760;2024-03-02T06:22:05;96987.66;;;7.20;96.60
75513;BME280;64090;49.770;18.760;2024-03-02T06:25:08;96987.18;;;7.21;95.87
75513;BME280;64090;49.770;18.760;2024-03-02T06:28:11;96988.67;;;7.24;96.18
75513;BME280;64090;49.770;18.760;2024-03-02T06:31:14;96986.40;;;7.29;96.16
75513;BME280;64090;49.770;18.760;2024-03-02T06:34:17;96989.70;;;7.35;96.18
75513;BME280;64090;49.770;18.760;2024-03-02T06:37:20;96991.65;;;7.39;96.00
75513;BME280;64090;49.770;18.760;2024-03-02T06:40:23;96991.36;;;7.44;95.77
75513;BME280;64090;49.770;18.760;2024-03-02T06:43:25;96988.36;;;7.49;95.94
75513;BME280;64090;49.770;18.760;2024-03-02T06:46:28;96993.23;;;7.54;95.73
75513;BME280;64090;49.770;18.760;2024-03-02T06:49:31;96996.45;;;7.57;95.05
75513;BME280;64090;49.770;18.760;2024-03-02T06:52:35;96999.05;;;7.59;95.03
75513;BME280;64090;49.770;18.760;2024-03-02T06:55:38;96998.11;;;7.62;95.11
75513;BME280;64090;49.770;18.760;2024-03-02T06:58:41;96998.33;;;7.67;95.25
75513;BME280;64090;49.770;18.760;2024-03-02T07:01:45;97002.09;;;7.73;95.19
75513;BME280;64090;49.770;18.760;2024-03-02T07:04:48;96999.11;;;7.77;95.04
75513;BME280;64090;49.770;18.760;2024-03-02T07:07:51;97004.65;;;7.83;95.17
75513;BME280;64090;49.770;18.760;2024-03-02T07:10:54;97004.48;;;7.91;95.03
75513;BME280;64090;49.770;18.760;2024-03-02T07:13:57;97004.04;;;8.01;94.76
75513;BME280;64090;49.770;18.760;2024-03-02T07:17:00;97012.20;;;8.13;94.78
75513;BME280;64090;49.770;18.760;2024-03-02T07:20:04;97012.00;;;8.27;94.58
75513;BME280;64090;49.770;18.760;2024-03-02T07:23:07;97018.16;;;8.40;94.45
75513;BME280;64090;49.770;18.760;2024-03-02T07:26:09;97023.80;;;8.56;94.31
75513;BME280;64090;49.770;18.760;2024-03-02T07:29:15;97020.70;;;8.73;94.11
75513;BME280;64090;49.770;18.760;2024-03-02T07:32:18;97019.52;;;8.91;93.29
75513;BME280;64090;49.770;18.760;2024-03-02T07:35:21;97019.89;;;9.08;93.09
75513;BME280;64090;49.770;18.760;2024-03-02T07:38:25;97022.16;;;9.24;92.64
75513;BME280;64090;49.770;18.760;2024-03-02T07:41:28;97022.93;;;9.36;92.47
75513;BME280;64090;49.770;18.760;2024-03-02T07:44:31;97020.30;;;9.48;92.31
75513;BME280;64090;49.770;18.760;2024-03-02T07:47:34;97025.70;;;9.61;91.74
75513;BME280;64090;49.770;18.760;2024-03-02T07:50:37;97022.55;;;9.76;91.37
75513;BME280;64090;49.770;18.760;2024-03-02T07:53:41;97031.82;;;9.93;91.46
75513;BME280;64090;49.770;18.760;2024-03-02T07:56:45;97032.33;;;10.06;91.16
75513;BME280;64090;49.770;18.760;2024-03-02T07:59:48;97029.02;;;10.18;90.87
75513;BME280;64090;49.770;18.760;2024-03-02T08:02:52;97027.13;;;10.36;90.22
75513;BME280;64090;49.770;18.760;2024-03-02T08:05:56;97027.33;;;10.56;89.50
75513;BME280;64090;49.770;18.760;2024-03-02T08:09:00;97031.73;;;10.77;88.90
75513;BME280;64090;49.770;18.760;2024-03-02T08:12:03;97034.12;;;10.98;88.60
75513;BME280;64090;49.770;18.760;2024-03-02T08:15:06;97037.47;;;11.19;87.97
75513;BME280;64090;49.770;18.760;2024-03-02T08:18:10;97035.87;;;11.39;87.83
75513;BME280;64090;49.770;18.760;2024-03-02T08:21:13;97036.42;;;11.62;87.42
75513;BME280;64090;49.770;18.760;2024-03-02T08:24:16;97038.72;;;11.86;86.94
75513;BME280;64090;49.770;18.760;2024-03-02T08:27:19;97035.45;;;12.10;86.28
75513;BME280;64090;49.770;18.760;2024-03-02T08:30:22;97041.55;;;12.33;85.67
75513;BME280;64090;49.770;18.760;2024-03-02T08:33:25;97041.43;;;12.50;84.84
75513;BME280;64090;49.770;18.760;2024-03-02T08:36:28;97039.54;;;12.69;84.10
75513;BME280;64090;49.770;18.760;2024-03-02T08:39:31;97042.85;;;12.88;83.00
75513;BME280;64090;49.770;18.760;2024-03-02T08:42:34;97041.39;;;13.07;83.33
75513;BME280;64090;49.770;18.760;2024-03-02T08:45:37;97045.59;;;13.26;82.71
75513;BME280;64090;49.770;18.760;2024-03-02T08:48:42;97043.00;;;13.40;81.93
75513;BME280;64090;49.770;18.760;2024-03-02T08:51:45;97045.55;;;13.56;82.29
75513;BME280;64090;49.770;18.760;2024-03-02T08:54:48;97045.67;;;13.67;81.85
75513;BME280;64090;49.770;18.760;2024-03-02T08:57:51;97045.70;;;13.78;81.55
75513;BME280;64090;49.770;18.760;2024-03-02T09:00:54;97046.31;;;13.93;79.81
75513;BME280;64090;49.770;18.760;2024-03-02T09:03:57;97044.32;;;14.06;78.81
75513;BME280;64090;49.770;18.760;2024-03-02T09:07:00;97042.52;;;14.27;79.55
75513;BME280;64090;49.770;18.760;2024-03-02T09:10:03;97046.24;;;14.40;78.79
75513;BME280;64090;49.770;18.760;2024-03-02T09:13:06;97043.05;;;14.44;77.47
75513;BME280;64090;49.770;18.760;2024-03-02T09:16:09;97045.25;;;14.53;77.83
75513;BME280;64090;49.770;18.760;2024-03-02T09:19:14;97047.38;;;14.63;77.88
75513;BME280;64090;49.770;18.760;2024-03-02T09:22:17;97046.46;;;14.67;77.49
75513;BME280;64090;49.770;18.760;2024-03-02T09:25:20;97049.52;;;14.67;76.56
75513;BME280;64090;49.770;18.760;2024-03-02T09:28:22;97053.39;;;14.60;76.26
75513;BME280;64090;49.770;18.760;2024-03-02T09:31:25;97054.59;;;14.48;77.08
75513;BME280;64090;49.770;18.760;2024-03-02T09:34:28;97057.77;;;14.34;77.24
75513;BME280;64090;49.770;18.760;2024-03-02T09:37:31;97059.35;;;14.22;77.95
75513;BME280;64090;49.770;18.760;2024-03-02T09:40:35;97065.36;;;14.12;77.87
75513;BME280;64090;49.770;18.760;2024-03-02T09:43:40;97068.04;;;14.01;78.13
75513;BME280;64090;49.770;18.760;2024-03-02T09:46:43;97071.93;;;13.94;78.07
75513;BME280;64090;49.770;18.760;2024-03-02T09:49:47;97077.83;;;13.92;78.74
75513;BME280;64090;49.770;18.760;2024-03-02T09:52:51;97080.81;;;13.92;78.12
75513;BME280;64090;49.770;18.760;2024-03-02T09:55:55;97084.16;;;13.84;76.95
75513;BME280;64090;49.770;18.760;2024-03-02T09:58:59;97085.30;;;13.78;78.07
75513;BME280;64090;49.770;18.760;2024-03-02T10:02:02;97085.61;;;13.62;76.77
75513;BME280;64090;49.770;18.760;2024-03-02T10:05:06;97086.98;;;13.46;75.52
75513;BME280;64090;49.770;18.760;2024-03-02T10:08:09;97089.92;;;13.40;76.82
75513;BME280;64090;49.770;18.760;2024-03-02T10:11:25;97088.27;;;13.40;78.10
75513;BME280;64090;49.770;18.760;2024-03-02T10:14:30;97088.48;;;13.45;78.01
75513;BME280;64090;49.770;18.760;2024-03-02T10:17:33;97090.45;;;13.45;78.98
75513;BME280;64090;49.770;18.760;2024-03-02T10:20:36;97090.81;;;13.54;79.23
75513;BME280;64090;49.770;18.760;2024-03-02T10:23:39;97090.81;;;13.61;79.22
75513;BME280;64090;49.770;18.760;2024-03-02T10:26:42;97088.20;;;13.63;78.34
75513;BME280;64090;49.770;18.760;2024-03-02T10:29:46;97088.31;;;13.58;77.50
75513;BME280;64090;49.770;18.760;2024-03-02T10:32:50;97089.40;;;13.53;78.26
75513;BME280;64090;49.770;18.760;2024-03-02T10:35:52;97093.04;;;13.53;77.80
75513;BME280;64090;49.770;18.760;2024-03-02T10:38:58;97088.92;;;13.41;76.03
75513;BME280;64090;49.770;18.760;2024-03-02T10:42:03;97087.43;;;13.33;74.80
75513;BME280;64090;49.770;18.760;2024-03-02T10:45:08;97086.55;;;13.24;74.59
75513;BME280;64090;49.770;18.760;2024-03-02T10:48:11;97093.34;;;13.18;75.11
75513;BME280;64090;49.770;18.760;2024-03-02T10:51:15;97096.63;;;13.04;75.18
75513;BME280;64090;49.770;18.760;2024-03-02T10:54:18;97096.64;;;12.96;75.39
75513;BME280;64090;49.770;18.760;2024-03-02T10:57:21;97094.71;;;12.85;75.90
75513;BME280;64090;49.770;18.760;2024-03-02T11:00:29;97091.64;;;12.79;76.76
75513;BME280;64090;49.770;18.760;2024-03-02T11:03:35;97090.02;;;12.73;77.16
75513;BME280;64090;49.770;18.760;2024-03-02T11:06:43;97090.11;;;12.72;77.32
75513;BME280;64090;49.770;18.760;2024-03-02T11:09:57;97088.95;;;12.77;77.52
75513;BME280;64090;49.770;18.760;2024-03-02T11:13:05;97089.73;;;12.82;77.47
75513;BME280;64090;49.770;18.760;2024-03-02T11:16:43;97087.44;;;12.77;77.58
75513;BME280;64090;49.770;18.760;2024-03-02T11:20:29;97092.15;;;12.75;77.74
75513;BME280;64090;49.770;18.760;2024-03-02T11:28:34;97085.66;;;12.71;78.79
75513;BME280;64090;49.770;18.760;2024-03-02T11:32:17;97082.59;;;12.75;78.93
75513;BME280;64090;49.770;18.760;2024-03-02T11:36:20;97083.23;;;12.75;79.09
75513;BME280;64090;49.770;18.760;2024-03-02T11:39:46;97084.98;;;12.82;79.15
75513;BME280;64090;49.770;18.760;2024-03-02T11:43:25;97085.39;;;12.81;79.32
75513;BME280;64090;49.770;18.760;2024-03-02T11:47:21;97082.88;;;12.81;79.38
75513;BME280;64090;49.770;18.760;2024-03-02T11:51:25;97083.52;;;12.86;80.14
75513;BME280;64090;49.770;18.760;2024-03-02T11:54:50;97086.61;;;12.96;80.39
75513;BME280;64090;49.770;18.760;2024-03-02T11:58:18;97081.39;;;13.00;80.36
75513;BME280;64090;49.770;18.760;2024-03-02T12:01:41;97083.33;;;12.98;80.56
75513;BME280;64090;49.770;18.760;2024-03-02T12:04:50;97086.46;;;12.91;80.45
75513;BME280;64090;49.770;18.760;2024-03-02T12:08:04;97086.33;;;12.88;80.51
75513;BME280;64090;49.770;18.760;2024-03-02T12:11:07;97085.34;;;12.81;80.63
75513;BME280;64090;49.770;18.760;2024-03-02T12:14:11;97081.17;;;12.78;80.93
75513;BME280;64090;49.770;18.760;2024-03-02T12:17:15;97085.05;;;12.83;81.21
75513;BME280;64090;49.770;18.760;2024-03-02T12:20:20;97082.61;;;12.86;81.53
75513;BME280;64090;49.770;18.760;2024-03-02T12:23:23;97076.85;;;12.81;81.78
75513;BME280;64090;49.770;18.760;2024-03-02T12:26:26;97081.11;;;12.77;81.87
75513;BME280;64090;49.770;18.760;2024-03-02T12:29:29;97081.16;;;12.73;81.92
75513;BME280;64090;49.770;18.760;2024-03-02T12:32:32;97080.02;;;12.68;82.21
75513;BME280;64090;49.770;18.760;2024-03-02T12:35:36;97080.97;;;12.66;82.46
75513;BME280;64090;49.770;18.760;2024-03-02T12:38:43;97081.02;;;12.66;82.44
75513;BME280;64090;49.770;18.760;2024-03-02T12:41:47;97078.81;;;12.65;82.56
75513;BME280;64090;49.770;18.760;2024-03-02T12:44:53;97079.55;;;12.62;82.28
75513;BME280;64090;49.770;18.760;2024-03-02T12:48:00;97076.00;;;12.55;82.56
75513;BME280;64090;49.770;18.760;2024-03-02T12:51:03;97076.55;;;12.51;82.83
75513;BME280;64090;49.770;18.760;2024-03-02T12:54:07;97072.62;;;12.52;82.90
75513;BME280;64090;49.770;18.760;2024-03-02T12:57:17;97070.48;;;12.56;82.97
75513;BME280;64090;49.770;18.760;2024-03-02T13:00:20;97072.69;;;12.65;83.06
75513;BME280;64090;49.770;18.760;2024-03-02T13:03:25;97068.84;;;12.75;82.99
75513;BME280;64090;49.770;18.760;2024-03-02T13:06:28;97063.27;;;12.87;81.87
75513;BME280;64090;49.770;18.760;2024-03-02T13:09:31;97062.55;;;12.94;81.70
75513;BME280;64090;49.770;18.760;2024-03-02T13:12:36;97062.65;;;13.02;81.93
75513;BME280;64090;49.770;18.760;2024-03-02T13:15:40;97053.77;;;13.07;80.03
75513;BME280;64090;49.770;18.760;2024-03-02T13:18:44;97051.60;;;13.11;80.18
75513;BME280;64090;49.770;18.760;2024-03-02T13:21:47;97047.25;;;13.21;80.30
75513;BME280;64090;49.770;18.760;2024-03-02T13:24:51;97044.77;;;13.38;80.66
75513;BME280;64090;49.770;18.760;2024-03-02T13:27:54;97044.83;;;13.60;80.66
75513;BME280;64090;49.770;18.760;2024-03-02T13:30:57;97042.73;;;13.70;80.03
75513;BME280;64090;49.770;18.760;2024-03-02T13:34:01;97043.94;;;13.82;80.11
75513;BME280;64090;49.770;18.760;2024-03-02T13:37:04;97040.80;;;13.96;79.54
75513;BME280;64090;49.770;18.760;2024-03-02T13:40:08;97039.85;;;14.04;79.27
75513;BME280;64090;49.770;18.760;2024-03-02T13:43:15;97040.33;;;14.08;78.56
75513;BME280;64090;49.770;18.760;2024-03-02T13:46:18;97041.67;;;14.05;78.01
75513;BME280;64090;49.770;18.760;2024-03-02T13:49:21;97039.30;;;13.92;78.25
75513;BME280;64090;49.770;18.760;2024-03-02T13:52:25;97042.03;;;13.82;77.89
75513;BME280;64090;49.770;18.760;2024-03-02T13:55:29;97039.70;;;13.70;78.30
75513;BME280;64090;49.770;18.760;2024-03-02T13:58:32;97044.71;;;13.70;78.42
75513;BME280;64090;49.770;18.760;2024-03-02T14:01:34;97041.50;;;13.73;78.43
75513;BME280;64090;49.770;18.760;2024-03-02T14:04:38;97042.02;;;13.81;78.42
75513;BME280;64090;49.770;18.760;2024-03-02T14:07:42;97041.80;;;13.85;78.41
75513;BME280;64090;49.770;18.760;2024-03-02T14:10:45;97039.67;;;13.89;78.28
75513;BME280;64090;49.770;18.760;2024-03-02T14:13:48;97040.11;;;13.85;78.26
75513;BME280;64090;49.770;18.760;2024-03-02T14:16:57;97038.26;;;13.84;78.47
75513;BME280;64090;49.770;18.760;2024-03-02T14:20:03;97035.39;;;13.81;78.33
75513;BME280;64090;49.770;18.760;2024-03-02T14:23:07;97037.18;;;13.74;78.37
75513;BME280;64090;49.770;18.760;2024-03-02T14:26:11;97038.95;;;13.66;78.63
75513;BME280;64090;49.770;18.760;2024-03-02T14:29:14;97042.61;;;13.62;78.67
75513;BME280;64090;49.770;18.760;2024-03-02T14:32:16;97044.14;;;13.36;79.49
75513;BME280;64090;49.770;18.760;2024-03-02T14:35:19;97047.09;;;13.08;80.06
75513;BME280;64090;49.770;18.760;2024-03-02T14:38:25;97046.94;;;12.87;80.56
75513;BME280;64090;49.770;18.760;2024-03-02T14:41:28;97047.48;;;12.66;80.88
75513;BME280;64090;49.770;18.760;2024-03-02T14:44:31;97044.60;;;12.46;81.45
75513;BME280;64090;49.770;18.760;2024-03-02T14:47:34;97041.14;;;12.24;81.80
75513;BME280;64090;49.770;18.760;2024-03-02T14:50:38;97033.58;;;12.00;82.33
75513;BME280;64090;49.770;18.760;2024-03-02T14:53:41;97033.29;;;11.79;82.75
75513;BME280;64090;49.770;18.760;2024-03-02T14:56:44;97034.27;;;11.61;83.27
75513;BME280;64090;49.770;18.760;2024-03-02T14:59:47;97031.38;;;11.45;83.78
75513;BME280;64090;49.770;18.760;2024-03-02T15:02:50;97026.69;;;11.29;84.53
75513;BME280;64090;49.770;18.760;2024-03-02T15:05:53;97022.85;;;11.19;84.93
75513;BME280;64090;49.770;18.760;2024-03-02T15:08:56;97017.14;;;11.10;85.11
75513;BME280;64090;49.770;18.760;2024-03-02T15:11:59;97018.33;;;11.04;85.97
75513;BME280;64090;49.770;18.760;2024-03-02T15:15:03;97017.83;;;10.99;86.22
75513;BME280;64090;49.770;18.760;2024-03-02T15:18:06;97019.61;;;10.93;86.18
75513;BME280;64090;49.770;18.760;2024-03-02T15:21:10;97020.99;;;10.85;86.51
75513;BME280;64090;49.770;18.760;2024-03-02T15:24:13;97021.38;;;10.77;87.05
75513;BME280;64090;49.770;18.760;2024-03-02T15:27:16;97023.55;;;10.70;87.62
75513;BME280;64090;49.770;18.760;2024-03-02T15:30:19;97027.26;;;10.57;88.26
75513;BME280;64090;49.770;18.760;2024-03-02T15:33:22;97024.73;;;10.47;89.56
75513;BME280;64090;49.770;18.760;2024-03-02T15:36:28;97023.64;;;10.35;90.08
75513;BME280;64090;49.770;18.760;2024-03-02T15:39:32;97026.65;;;10.25;91.70
75513;BME280;64090;49.770;18.760;2024-03-02T15:42:35;97025.23;;;10.16;91.41
75513;BME280;64090;49.770;18.760;2024-03-02T15:45:38;97025.77;;;10.12;91.21
75513;BME280;64090;49.770;18.760;2024-03-02T15:48:41;97018.85;;;10.12;91.20
75513;BME280;64090;49.770;18.760;2024-03-02T15:51:44;97020.64;;;10.14;90.92
75513;BME280;64090;49.770;18.760;2024-03-02T15:54:48;97016.81;;;10.13;90.62
75513;BME280;64090;49.770;18.760;2024-03-02T15:57:54;97015.95;;;10.06;92.74
75513;BME280;64090;49.770;18.760;2024-03-02T16:00:57;97011.16;;;9.97;91.95
75513;BME280;64090;49.770;18.760;2024-03-02T16:04:01;97008.19;;;9.92;91.66
75513;BME280;64090;49.770;18.760;2024-03-02T16:07:04;97011.63;;;9.86;91.93
75513;BME280;64090;49.770;18.760;2024-03-02T16:10:07;97014.07;;;9.79;91.18
75513;BME280;64090;49.770;18.760;2024-03-02T16:13:11;97015.52;;;9.72;91.23
75513;BME280;64090;49.770;18.760;2024-03-02T16:16:14;97015.71;;;9.69;91.86
75513;BME280;64090;49.770;18.760;2024-03-02T16:19:17;97017.17;;;9.64;92.03
75513;BME280;64090;49.770;18.760;2024-03-02T16:22:34;97015.83;;;9.60;92.31